Time;durP1;ratioP1;P1;durP2;ratioP2;P2;SDS_P1;SDS_P2;PMS_P1;PMS_P2;Temp;Humidity;BMP_temperature;BMP_pressure;BME280_temperature;BME280_humidity;BME280_pressure;Samples;Min_cycle;Max_cycle;Signal;HPM_P1;HPM_P2
2023/09/11 00:01:15;;;;;;;13.80;11.73;;;19.10;1.00;;;;;;10473820;28;20203;-78
2023/09/11 00:06:36;;;;;;;11.43;10.23;;;19.00;1.00;;;;;;10470669;28;20246;-78
2023/09/11 00:11:57;;;;;;;12.07;10.32;;;18.90;1.00;;;;;;10439950;28;20247;-78
2023/09/11 00:17:19;;;;;;;16.33;11.98;;;18.90;1.00;;;;;;10454815;28;20486;-78
2023/09/11 00:22:40;;;;;;;14.75;11.65;;;18.90;1.00;;;;;;10455814;28;20505;-79
2023/09/11 00:28:01;;;;;;;15.98;12.20;;;18.90;1.00;;;;;;10457092;28;20196;-78
2023/09/11 00:33:22;;;;;;;19.08;13.05;;;18.80;1.00;;;;;;10431119;28;20196;-78
2023/09/11 00:38:47;;;;;;;19.75;15.48;;;18.80;1.00;;;;;;10437099;28;20196;-79
2023/09/11 00:44:08;;;;;;;19.67;13.13;;;18.70;1.00;;;;;;10437740;28;20232;-79
2023/09/11 00:49:31;;;;;;;24.33;15.82;;;18.70;1.00;;;;;;10405049;28;20224;-78
2023/09/11 00:55:53;;;;;;;22.17;15.02;;;18.60;1.00;;;;;;10366048;28;20214;-78
2023/09/11 01:01:15;;;;;;;17.75;12.35;;;18.50;99.90;;;;;;10377305;28;20209;-78
2023/09/11 01:06:37;;;;;;;16.60;11.02;;;18.60;1.00;;;;;;10341694;28;20225;-79
2023/09/11 01:11:58;;;;;;;13.02;11.48;;;18.50;20.90;;;;;;10379409;28;20247;-78
2023/09/11 01:17:40;;;;;;;15.23;10.50;;;18.50;1.00;;;;;;10360732;28;20233;-78
2023/09/11 01:23:42;;;;;;;14.63;11.68;;;18.40;52.10;;;;;;10362887;28;20256;-79
2023/09/11 01:29:05;;;;;;;15.73;11.70;;;18.30;1.00;;;;;;10399343;28;20286;-79
2023/09/11 01:34:26;;;;;;;16.27;11.43;;;18.20;1.00;;;;;;10399089;28;20204;-78
2023/09/11 01:39:48;;;;;;;14.32;11.45;;;18.20;1.00;;;;;;10407197;28;20196;-78
2023/09/11 01:45:13;;;;;;;15.52;11.82;;;18.10;1.00;;;;;;10416844;28;20194;-79
2023/09/11 01:50:36;;;;;;;12.98;11.07;;;18.00;1.00;;;;;;10435377;28;20228;-80
2023/09/11 01:55:58;;;;;;;15.02;11.48;;;17.90;1.00;;;;;;10471571;28;20200;-80
2023/09/11 02:01:19;;;;;;;15.00;11.75;;;;;;;;;;10460584;28;20226;-79
2023/09/11 02:06:40;;;;;;;14.43;10.88;;;18.00;1.00;;;;;;10478361;28;20190;-79
2023/09/11 02:12:01;;;;;;;13.15;10.93;;;18.00;99.90;;;;;;10436397;28;20466;-79
2023/09/11 02:17:23;;;;;;;12.80;11.25;;;17.90;1.00;;;;;;10445289;28;20257;-79
2023/09/11 02:22:44;;;;;;;16.95;11.80;;;17.90;29.40;;;;;;10398931;28;20212;-79
2023/09/11 02:28:05;;;;;;;13.68;10.70;;;17.80;1.00;;;;;;10442210;28;20483;-80
2023/09/11 02:33:27;;;;;;;17.60;12.50;;;;;;;;;;10408145;28;20204;-79
2023/09/11 02:38:48;;;;;;;14.93;12.00;;;;;;;;;;10396955;28;20364;-79
2023/09/11 02:44:11;;;;;;;17.52;12.30;;;;;;;;;;10432694;28;20189;-80
2023/09/11 02:49:32;;;;;;;15.60;12.45;;;;;;;;;;10437756;28;20398;-79
2023/09/11 02:54:53;;;;;;;17.30;12.05;;;;;;;;;;10462810;28;20196;-79
2023/09/11 03:00:15;;;;;;;12.98;11.55;;;;;;;;;;10443304;28;20550;-80
2023/09/11 03:05:36;;;;;;;14.02;11.32;;;;;;;;;;10422627;28;20193;-79
2023/09/11 03:11:06;;;;;;;15.30;12.48;;;17.80;1.00;;;;;;10414550;28;20247;-79
2023/09/11 03:16:29;;;;;;;16.83;11.85;;;17.40;1.00;;;;;;10438853;28;20242;-79
2023/09/11 03:21:53;;;;;;;14.30;11.82;;;17.30;99.90;;;;;;10423542;28;21167;-79
2023/09/11 03:27:15;;;;;;;15.48;12.18;;;17.30;1.00;;;;;;10417895;28;20196;-79
2023/09/11 03:32:38;;;;;;;16.73;12.07;;;;;;;;;;10431165;28;20561;-79
2023/09/11 03:38:00;;;;;;;16.70;11.88;;;;;;;;;;10397605;28;20209;-79
2023/09/11 03:43:21;;;;;;;14.80;11.02;;;17.10;1.00;;;;;;10401515;28;20221;-79
2023/09/11 03:48:42;;;;;;;13.07;10.90;;;17.00;1.00;;;;;;10414531;28;20494;-79
2023/09/11 03:54:10;;;;;;;12.93;10.93;;;16.90;1.00;;;;;;10461574;28;20494;-79
2023/09/11 04:00:22;;;;;;;13.95;11.35;;;16.90;1.00;;;;;;10443561;28;20481;-78
2023/09/11 04:05:44;;;;;;;13.93;11.35;;;17.00;1.00;;;;;;10427578;28;20246;-79
2023/09/11 04:11:05;;;;;;;13.30;10.50;;;16.90;1.00;;;;;;10461284;28;20236;-79
2023/09/11 04:21:13;;;;;;;11.32;10.13;;;16.90;1.00;;;;;;10518629;28;20945;-79
2023/09/11 04:26:34;;;;;;;11.07;9.85;;;16.80;99.90;;;;;;10484300;28;20273;-80
2023/09/11 04:31:55;;;;;;;12.77;10.10;;;16.80;1.00;;;;;;10477363;28;20204;-79
2023/09/11 04:37:17;;;;;;;10.85;9.75;;;16.90;1.00;;;;;;10456420;28;20542;-79
2023/09/11 04:42:39;;;;;;;10.68;9.52;;;16.90;99.90;;;;;;10488073;28;20219;-79
2023/09/11 04:48:00;;;;;;;10.50;9.32;;;16.90;1.00;;;;;;10470366;28;20237;-79
2023/09/11 04:53:22;;;;;;;12.27;9.35;;;16.90;1.00;;;;;;10470141;28;20494;-79
2023/09/11 04:58:43;;;;;;;12.02;10.20;;;16.90;1.00;;;;;;10481935;28;20219;-79
2023/09/11 05:04:06;;;;;;;10.50;9.13;;;16.90;1.00;;;;;;10510636;28;20199;-79
2023/09/11 05:09:27;;;;;;;11.15;9.95;;;17.00;1.00;;;;;;10498194;28;20204;-79
2023/09/11 05:14:49;;;;;;;11.30;10.00;;;17.20;1.00;;;;;;10469086;28;20199;-80
2023/09/11 05:20:10;;;;;;;13.30;10.05;;;17.30;1.00;;;;;;10489631;28;20265;-79
2023/09/11 05:25:32;;;;;;;14.63;10.82;;;17.40;1.00;;;;;;10509879;28;20194;-80
2023/09/11 05:30:53;;;;;;;13.05;11.57;;;17.50;1.00;;;;;;10467368;28;20231;-80
2023/09/11 05:36:14;;;;;;;12.38;11.07;;;17.50;99.90;;;;;;10426947;28;20204;-80
2023/09/11 05:41:35;;;;;;;21.02;14.23;;;17.60;1.00;;;;;;10472821;28;20221;-79
2023/09/11 05:46:57;;;;;;;40.85;20.85;;;17.80;1.00;;;;;;10467919;28;20208;-78
2023/09/11 05:52:18;;;;;;;45.58;23.83;;;18.00;1.00;;;;;;10442598;28;20279;-79
2023/09/11 05:57:40;;;;;;;55.15;27.60;;;18.10;1.00;;;;;;10450284;28;20421;-78
2023/09/11 06:03:01;;;;;;;53.85;28.80;;;18.30;1.00;;;;;;10440072;28;20275;-79
2023/09/11 06:08:22;;;;;;;53.95;28.05;;;18.60;1.00;;;;;;10443132;28;20430;-79
2023/09/11 06:13:43;;;;;;;49.10;26.38;;;18.80;1.00;;;;;;10440567;28;20518;-79
2023/09/11 06:19:04;;;;;;;46.53;22.58;;;19.10;1.00;;;;;;10459269;28;20256;-79
2023/09/11 06:24:26;;;;;;;35.28;20.00;;;19.40;1.00;;;;;;10462028;28;20200;-79
2023/09/11 06:29:47;;;;;;;38.05;19.90;;;19.60;1.00;;;;;;10480628;28;20215;-79
2023/09/11 06:35:09;;;;;;;38.28;20.25;;;20.00;99.90;;;;;;10385325;28;20454;-79
2023/09/11 06:40:30;;;;;;;32.53;17.92;;;20.90;49.80;;;;;;10377617;28;20233;-78
2023/09/11 06:45:52;;;;;;;31.10;17.27;;;22.40;1.00;;;;;;10392754;28;20243;-79
2023/09/11 06:51:14;;;;;;;34.33;18.50;;;23.90;1.00;;;;;;10360804;28;20279;-79
2023/09/11 06:56:35;;;;;;;34.28;15.60;;;25.10;99.90;;;;;;10350687;28;20488;-80
2023/09/11 07:01:57;;;;;;;16.38;11.63;;;25.80;99.90;;;;;;10366926;28;20210;-80
2023/09/11 07:07:18;;;;;;;12.73;9.18;;;26.80;99.90;;;;;;10339243;28;20304;-79
2023/09/11 07:12:39;;;;;;;13.40;7.75;;;27.50;99.90;;;;;;10380016;28;20201;-80
2023/09/11 07:18:00;;;;;;;8.00;6.28;;;28.20;99.90;;;;;;10386116;28;20565;-80
2023/09/11 07:23:23;;;;;;;11.93;7.82;;;28.70;99.90;;;;;;10392001;28;20265;-80
2023/09/11 07:28:58;;;;;;;14.75;8.02;;;29.60;99.90;;;;;;10384555;28;20201;-81
2023/09/11 07:34:19;;;;;;;15.10;7.63;;;29.40;99.90;;;;;;10373330;28;20213;-81
2023/09/11 07:39:40;;;;;;;11.10;7.80;;;;;;;;;;10385271;28;20240;-80
2023/09/11 07:45:02;;;;;;;9.98;7.25;;;30.60;99.90;;;;;;10386144;28;20201;-82
2023/09/11 07:50:23;;;;;;;9.75;6.63;;;30.80;99.90;;;;;;10375742;28;20488;-80
2023/09/11 07:55:44;;;;;;;8.48;6.88;;;31.20;99.90;;;;;;10378568;28;20194;-84
2023/09/11 08:01:05;;;;;;;9.23;6.60;;;31.80;99.90;;;;;;10378723;28;20380;-86
2023/09/11 08:06:27;;;;;;;7.85;6.55;;;32.10;99.90;;;;;;10382168;28;20392;-82
2023/09/11 08:11:49;;;;;;;6.20;5.50;;;32.10;99.90;;;;;;10380227;28;20398;-82
2023/09/11 08:17:10;;;;;;;6.10;5.10;;;32.50;99.90;;;;;;10389313;28;20299;-80
2023/09/11 08:22:33;;;;;;;7.60;5.22;;;;;;;;;;10388696;28;20203;-80
2023/09/11 08:27:54;;;;;;;12.35;5.25;;;33.00;99.90;;;;;;10387816;28;20732;-79
2023/09/11 08:33:16;;;;;;;8.48;5.35;;;33.50;99.90;;;;;;10371756;28;20204;-80
2023/09/11 08:38:37;;;;;;;8.25;5.80;;;33.80;99.90;;;;;;10367952;28;20323;-80
2023/09/11 08:43:58;;;;;;;7.75;6.00;;;34.10;99.90;;;;;;10389292;28;20214;-80
2023/09/11 08:49:23;;;;;;;5.88;5.38;;;33.80;99.90;;;;;;10359619;28;20252;-81
2023/09/11 08:54:48;;;;;;;9.75;4.80;;;33.90;99.90;;;;;;10388189;28;20251;-79
2023/09/11 09:00:13;;;;;;;11.27;5.60;;;34.50;99.90;;;;;;10378159;28;20563;-79
2023/09/11 09:05:35;;;;;;;5.20;4.70;;;35.00;99.90;;;;;;10392436;28;20185;-79
2023/09/11 09:10:58;;;;;;;11.23;5.38;;;35.10;99.90;;;;;;10390835;28;20216;-80
2023/09/11 09:16:20;;;;;;;5.53;5.03;;;35.30;99.90;;;;;;10392340;28;20258;-80
2023/09/11 09:22:06;;;;;;;5.97;5.40;;;35.30;99.90;;;;;;10374308;28;20308;-80
2023/09/11 09:27:28;;;;;;;7.68;5.22;;;35.70;99.90;;;;;;10394803;28;20201;-83
2023/09/11 09:32:51;;;;;;;10.32;5.20;;;35.80;99.90;;;;;;10371233;28;20213;-81
2023/09/11 09:43:03;;;;;;;5.95;4.82;;;36.30;99.90;;;;;;10504809;28;20571;-81
2023/09/11 09:48:24;;;;;;;6.10;4.72;;;35.90;99.90;;;;;;10506857;28;20347;-82
2023/09/11 09:53:46;;;;;;;9.57;4.65;;;36.40;99.90;;;;;;10424887;28;20208;-81
2023/09/11 09:59:08;;;;;;;6.72;4.25;;;36.30;99.90;;;;;;10450139;28;20342;-80
2023/09/11 10:04:31;;;;;;;5.43;4.30;;;36.70;99.90;;;;;;10440604;28;20311;-86
2023/09/11 10:09:52;;;;;;;7.40;4.90;;;37.20;99.90;;;;;;10428183;28;20239;-81
2023/09/11 10:15:13;;;;;;;5.35;4.45;;;37.20;99.90;;;;;;10438204;28;20204;-82
2023/09/11 10:20:35;;;;;;;8.90;4.88;;;37.10;99.90;;;;;;10450254;28;20296;-84
2023/09/11 10:26:03;;;;;;;5.25;4.35;;;37.20;99.90;;;;;;10464374;28;20394;-87
2023/09/11 10:31:30;;;;;;;8.13;6.90;;;37.40;99.90;;;;;;10447838;28;20453;-80
2023/09/11 10:36:56;;;;;;;5.88;5.30;;;37.50;99.90;;;;;;10438622;28;20542;-82
2023/09/11 10:42:18;;;;;;;6.32;5.00;;;37.50;99.90;;;;;;10472541;28;20319;-79
2023/09/11 10:47:52;;;;;;;5.53;4.65;;;37.30;99.90;;;;;;10461504;28;20211;-81
2023/09/11 10:53:13;;;;;;;6.45;4.75;;;37.40;99.90;;;;;;10442703;28;20205;-84
2023/09/11 10:58:35;;;;;;;6.25;4.68;;;37.40;99.40;;;;;;10415245;28;20531;-82
2023/09/11 11:03:57;;;;;;;8.48;5.35;;;37.40;98.30;;;;;;10435898;28;20253;-82
2023/09/11 11:09:32;;;;;;;6.70;4.80;;;37.40;98.60;;;;;;10435645;28;20399;-83
2023/09/11 11:15:17;;;;;;;5.82;5.20;;;37.30;98.80;;;;;;10423287;28;20204;-83
2023/09/11 11:21:05;;;;;;;5.03;4.40;;;37.60;97.90;;;;;;10451328;28;20327;-81
2023/09/11 11:26:29;;;;;;;7.57;5.65;;;37.50;97.20;;;;;;10434905;28;20197;-84
2023/09/11 11:31:54;;;;;;;9.95;5.30;;;37.50;96.80;;;;;;10433956;28;20212;-81
2023/09/11 11:37:20;;;;;;;5.97;5.03;;;37.70;96.20;;;;;;10436134;28;20200;-86
2023/09/11 11:42:45;;;;;;;7.18;4.55;;;37.80;95.70;;;;;;10456366;28;20493;-88
2023/09/11 11:48:09;;;;;;;8.15;4.95;;;37.70;95.60;;;;;;10434796;28;20565;-81
2023/09/11 11:53:31;;;;;;;12.38;5.90;;;37.40;94.60;;;;;;10410151;28;20216;-82
2023/09/11 11:58:57;;;;;;;5.57;4.88;;;37.40;95.30;;;;;;10431250;28;20461;-82
2023/09/11 12:04:18;;;;;;;8.48;5.22;;;37.60;94.20;;;;;;10432254;28;20200;-82
2023/09/11 12:09:45;;;;;;;8.13;5.70;;;37.50;93.50;;;;;;10431222;28;20269;-83
2023/09/11 12:15:07;;;;;;;7.85;5.72;;;37.40;92.70;;;;;;10454284;28;20226;-86
2023/09/11 12:20:28;;;;;;;8.52;5.43;;;37.30;93.20;;;;;;10432809;28;20230;-78
2023/09/11 12:25:50;;;;;;;12.63;5.18;;;36.90;92.10;;;;;;10431837;28;20196;-84
2023/09/11 12:31:12;;;;;;;6.72;5.15;;;36.50;92.10;;;;;;10418343;28;20196;-82
2023/09/11 12:36:34;;;;;;;10.27;7.35;;;36.20;99.90;;;;;;10417441;28;20185;-80
2023/09/11 12:41:56;;;;;;;6.05;4.90;;;36.00;93.00;;;;;;10427266;28;20250;-81
2023/09/11 12:52:11;;;;;;;6.07;4.88;;;36.00;72.00;;;;;;10601934;27;20473;-81
2023/09/11 12:57:32;;;;;;;5.28;4.60;;;35.80;92.60;;;;;;10603712;28;20261;-83
2023/09/11 13:03:00;;;;;;;5.45;4.90;;;35.40;91.60;;;;;;10553910;28;20194;-84
2023/09/11 13:08:24;;;;;;;5.57;4.85;;;34.90;91.90;;;;;;10558343;28;20225;-82
2023/09/11 13:13:45;;;;;;;8.82;6.15;;;34.50;91.40;;;;;;10552184;28;20272;-81
2023/09/11 13:19:11;;;;;;;8.07;4.93;;;34.10;91.40;;;;;;10584282;28;20526;-82
2023/09/11 13:24:32;;;;;;;5.95;4.72;;;34.00;91.10;;;;;;10587711;28;20238;-86
2023/09/11 13:29:54;;;;;;;6.28;4.70;;;33.60;90.50;;;;;;10559235;28;20226;-85
2023/09/11 13:35:15;;;;;;;5.43;4.93;;;33.30;90.60;;;;;;10559934;28;20194;-84
2023/09/11 13:40:36;;;;;;;5.10;4.45;;;33.00;90.30;;;;;;10589634;28;20456;-84
2023/09/11 13:45:57;;;;;;;5.93;5.32;;;32.70;90.30;;;;;;10572638;28;20251;-81
2023/09/11 13:51:18;;;;;;;9.20;4.70;;;32.60;91.40;;;;;;10589360;28;20252;-84
2023/09/11 13:56:39;;;;;;;6.45;4.63;;;32.30;90.70;;;;;;10568164;27;20202;-83
2023/09/11 14:02:00;;;;;;;6.70;5.07;;;31.90;90.80;;;;;;10526309;28;20206;-80
2023/09/11 14:07:22;;;;;;;6.25;4.78;;;31.70;90.70;;;;;;10542994;28;20216;-83
2023/09/11 14:17:30;;;;;;;10.30;4.93;;;31.20;69.60;;;;;;10532858;28;20548;-84
2023/09/11 14:22:52;;;;;;;7.22;5.15;;;31.00;91.60;;;;;;10507388;28;20257;-80
2023/09/11 14:28:13;;;;;;;4.78;4.28;;;30.80;91.90;;;;;;10505763;28;20217;-78
2023/09/11 14:33:34;;;;;;;7.32;4.72;;;30.50;91.00;;;;;;10508381;28;20222;-79
2023/09/11 14:38:57;;;;;;;5.57;4.88;;;30.30;92.20;;;;;;10503494;28;20505;-92
2023/09/11 14:44:19;;;;;;;8.02;5.38;;;30.30;91.00;;;;;;10506421;28;20196;-83
2023/09/11 14:49:40;;;;;;;5.75;4.95;;;30.10;92.10;;;;;;10507224;28;20369;-79
2023/09/11 14:55:01;;;;;;;4.63;4.22;;;30.00;92.00;;;;;;10506499;28;20298;-80
2023/09/11 15:00:22;;;;;;;5.75;4.45;;;30.00;92.30;;;;;;10503253;28;20199;-80
2023/09/11 15:05:43;;;;;;;5.95;4.53;;;29.90;92.50;;;;;;10521689;28;20191;-80
2023/09/11 15:11:05;;;;;;;8.68;4.90;;;29.80;92.10;;;;;;10509194;28;20199;-80
2023/09/11 15:16:26;;;;;;;7.53;4.80;;;29.70;92.00;;;;;;10506654;28;20305;-79
2023/09/11 15:21:47;;;;;;;4.90;4.25;;;29.60;92.40;;;;;;10483292;28;20200;-79
2023/09/11 15:27:11;;;;;;;5.07;4.30;;;29.50;92.70;;;;;;10480970;28;20192;-79
2023/09/11 15:36:40;;;;;;;4.72;4.20;;;29.40;73.60;;;;;;10552758;27;20563;-79
2023/09/11 15:42:01;;;;;;;5.47;4.38;;;29.20;92.80;;;;;;10538896;28;20257;-79
2023/09/11 15:47:22;;;;;;;5.00;4.50;;;29.10;92.60;;;;;;10494128;28;20241;-79
2023/09/11 15:57:30;;;;;;;4.45;4.05;;;29.00;72.50;;;;;;10513731;28;20564;-79
2023/09/11 16:02:51;;;;;;;5.72;4.40;;;28.80;92.70;;;;;;10511138;28;20276;-79
2023/09/11 16:08:12;;;;;;;4.53;4.05;;;28.60;99.90;;;;;;10512261;28;20385;-79
2023/09/11 16:13:33;;;;;;;4.82;4.32;;;28.40;93.90;;;;;;10526974;28;20223;-79
2023/09/11 16:23:49;;;;;;;18.75;12.35;;;28.00;82.80;;;;;;10640025;27;20322;-79
2023/09/11 16:29:10;;;;;;;12.88;7.80;;;27.80;97.60;;;;;;10610049;28;20191;-78
2023/09/11 16:34:31;;;;;;;7.72;6.93;;;27.40;99.90;;;;;;10589995;28;20540;-80
2023/09/11 16:39:52;;;;;;;12.07;7.13;;;27.00;99.90;;;;;;10593262;28;20217;-79
2023/09/11 16:59:54;;;;;;;16.60;10.52;;;26.00;97.30;;;;;;10544002;28;20951;-79
2023/09/11 17:05:15;;;;;;;19.42;10.98;;;25.80;99.90;;;;;;10526684;28;20237;-78
2023/09/11 17:15:36;;;;;;;20.60;10.68;;;25.40;99.90;;;;;;10591500;27;20585;-79
2023/09/11 17:20:57;;;;;;;13.48;10.90;;;25.20;99.90;;;;;;10597507;28;20239;-79
2023/09/11 17:26:18;;;;;;;11.50;9.82;;;25.10;99.90;;;;;;10562610;28;20284;-79
2023/09/11 17:31:39;;;;;;;13.38;9.95;;;25.00;99.90;;;;;;10554050;28;20222;-78
2023/09/11 17:37:01;;;;;;;18.05;11.05;;;24.90;99.90;;;;;;10553885;28;20187;-79
2023/09/11 17:42:22;;;;;;;14.18;9.70;;;24.80;99.90;;;;;;10566697;28;20281;-79
2023/09/11 17:47:44;;;;;;;14.93;10.32;;;24.70;99.90;;;;;;10554830;28;20558;-79
2023/09/11 17:53:05;;;;;;;12.68;10.10;;;24.60;99.90;;;;;;10511181;28;20222;-79
2023/09/11 17:58:26;;;;;;;13.32;10.35;;;24.40;99.90;;;;;;10539887;28;20411;-79
2023/09/11 18:03:52;;;;;;;16.35;10.52;;;24.30;99.90;;;;;;10579404;28;20195;-78
2023/09/11 18:09:16;;;;;;;13.75;10.15;;;24.20;99.90;;;;;;10545653;28;20195;-79
2023/09/11 18:14:37;;;;;;;13.77;10.25;;;24.00;99.90;;;;;;10572966;28;20253;-79
2023/09/11 18:19:57;;;;;;;12.82;9.90;;;23.90;99.90;;;;;;10592694;28;20185;-78
2023/09/11 18:25:20;;;;;;;11.35;10.10;;;23.80;99.90;;;;;;10533005;28;20244;-79
2023/09/11 18:30:42;;;;;;;15.88;10.52;;;23.70;99.90;;;;;;10522643;28;20206;-79
2023/09/11 18:41:14;;;;;;;10.07;9.02;;;23.50;99.90;;;;;;10513796;28;20772;-79
2023/09/11 18:46:36;;;;;;;12.70;8.55;;;23.40;99.90;;;;;;10498189;28;20195;-78
2023/09/11 18:56:46;;;;;;;13.90;10.15;;;23.40;99.90;;;;;;10556204;27;20542;-78
2023/09/11 19:02:07;;;;;;;12.27;10.00;;;23.20;99.90;;;;;;10539876;28;20240;-79
2023/09/11 19:12:38;;;;;;;17.38;11.18;;;22.90;1.00;;;;;;10552649;28;20557;-79
2023/09/11 19:17:59;;;;;;;24.08;14.13;;;22.90;1.00;;;;;;10512286;28;20210;-78
2023/09/11 19:23:21;;;;;;;28.80;15.20;;;22.80;1.00;;;;;;10472315;28;20199;-79
2023/09/11 19:28:42;;;;;;;35.47;17.45;;;22.80;1.00;;;;;;10471779;28;20220;-79
2023/09/11 19:34:03;;;;;;;36.50;16.92;;;22.70;1.00;;;;;;10499014;28;20203;-79
2023/09/11 19:39:24;;;;;;;36.28;18.67;;;22.60;1.00;;;;;;10498016;28;20194;-79
2023/09/11 19:45:50;;;;;;;24.70;15.45;;;22.50;1.00;;;;;;10549310;28;20577;-78
2023/09/11 19:51:12;;;;;;;27.80;15.45;;;22.40;1.00;;;;;;10545948;28;20256;-79
2023/09/11 19:56:34;;;;;;;22.05;13.57;;;22.30;1.00;;;;;;10554281;28;20274;-79
2023/09/11 20:01:54;;;;;;;15.88;13.18;;;22.20;1.00;;;;;;10537950;28;20221;-79
2023/09/11 20:12:06;;;;;;;20.85;12.80;;;22.10;1.00;;;;;;10514067;28;20553;-79
2023/09/11 20:17:27;;;;;;;16.65;11.40;;;22.00;1.00;;;;;;10442830;28;20204;-79
2023/09/11 20:22:49;;;;;;;14.68;13.02;;;21.90;1.00;;;;;;10474854;28;20191;-79
2023/09/11 20:37:59;;;;;;;30.30;17.73;;;21.70;1.00;;;;;;10509232;28;20931;-79
2023/09/11 20:43:20;;;;;;;23.90;16.38;;;21.70;1.00;;;;;;10481130;28;20235;-79
2023/09/11 20:48:42;;;;;;;24.17;15.27;;;21.60;1.00;;;;;;10471941;28;20288;-79
2023/09/11 20:59:50;;;;;;;20.08;14.20;;;21.50;1.00;;;;;;10514056;28;20557;-79
2023/09/11 21:05:11;;;;;;;14.93;12.43;;;21.40;1.00;;;;;;10502392;28;20238;-79
2023/09/11 21:10:32;;;;;;;15.63;12.77;;;21.40;1.00;;;;;;10511439;28;20202;-79
2023/09/11 21:15:54;;;;;;;15.38;12.32;;;21.30;1.00;;;;;;10481889;28;20223;-79
2023/09/11 21:26:02;;;;;;;11.43;10.25;;;21.20;1.00;;;;;;10531087;27;20581;-80
2023/09/11 21:31:23;;;;;;;15.85;11.05;;;21.10;32.10;;;;;;10513794;28;20187;-78
2023/09/11 21:36:44;;;;;;;15.93;10.75;;;20.90;71.30;;;;;;10485184;28;20226;-79
2023/09/11 21:42:06;;;;;;;14.90;10.65;;;20.90;97.50;;;;;;10492268;28;20297;-79
2023/09/11 21:47:26;;;;;;;16.00;11.40;;;20.80;99.90;;;;;;10513048;28;20190;-79
2023/09/11 21:52:47;;;;;;;15.25;11.63;;;20.80;99.90;;;;;;10509267;28;20211;-79
2023/09/11 21:58:09;;;;;;;22.52;13.52;;;20.70;99.90;;;;;;10511320;28;20195;-79
2023/09/11 22:03:30;;;;;;;18.33;13.57;;;20.60;99.90;;;;;;10512124;28;20471;-79
2023/09/11 22:08:51;;;;;;;16.88;12.02;;;20.60;99.90;;;;;;10508840;28;20412;-79
2023/09/11 22:14:12;;;;;;;22.20;12.70;;;20.50;99.90;;;;;;10495609;28;20407;-79
2023/09/11 22:19:33;;;;;;;15.05;11.20;;;20.40;99.90;;;;;;10483454;28;20184;-78
2023/09/11 22:24:54;;;;;;;14.18;11.90;;;20.30;99.90;;;;;;10493698;28;20230;-79
2023/09/11 22:30:15;;;;;;;16.30;12.48;;;20.20;99.90;;;;;;10483433;28;20203;-78
2023/09/11 22:35:36;;;;;;;18.70;11.85;;;20.10;99.90;;;;;;10451203;28;20196;-78
2023/09/11 22:41:01;;;;;;;18.42;11.90;;;20.10;1.00;;;;;;10451637;28;20223;-78
2023/09/11 22:46:22;;;;;;;13.68;11.35;;;20.10;99.90;;;;;;10468075;28;20212;-79
2023/09/11 22:51:44;;;;;;;13.77;10.82;;;20.00;1.00;;;;;;10483049;28;20195;-78
2023/09/11 22:57:05;;;;;;;12.52;10.15;;;20.00;99.90;;;;;;10468387;28;20280;-78
2023/09/11 23:02:26;;;;;;;13.80;10.98;;;20.00;99.90;;;;;;10464931;28;20302;-79
2023/09/11 23:07:47;;;;;;;13.63;11.80;;;20.00;99.90;;;;;;10482473;28;20202;-79
2023/09/11 23:13:08;;;;;;;14.65;12.38;;;19.90;1.00;;;;;;10456090;28;20651;-78
2023/09/11 23:18:29;;;;;;;15.30;11.40;;;19.80;1.00;;;;;;10472987;28;20558;-79
2023/09/11 23:34:22;;;;;;;16.30;12.55;;;19.50;1.00;;;;;;10514297;28;20563;-78
2023/09/11 23:39:43;;;;;;;15.38;11.68;;;19.40;1.00;;;;;;10512363;28;20497;-78
2023/09/11 23:45:05;;;;;;;14.75;12.00;;;19.40;1.00;;;;;;10480013;28;20211;-78
2023/09/11 23:55:25;;;;;;;14.07;12.02;;;19.30;1.00;;;;;;10555643;27;20723;-78
